createdAt,value
2023-05-14T00:00:14.406Z,8.89
2023-05-14T00:01:15.967Z,8.87
2023-05-14T00:02:17.494Z,8.84
2023-05-14T00:03:19.110Z,8.79
2023-05-14T00:04:20.724Z,8.77
2023-05-14T00:05:22.598Z,8.79
2023-05-14T00:06:24.090Z,8.77
2023-05-14T00:07:30.659Z,8.76
2023-05-14T00:08:32.376Z,8.75
2023-05-14T00:09:35.234Z,8.72
2023-05-14T00:10:36.722Z,8.70
2023-05-14T00:11:38.143Z,8.68
2023-05-14T00:12:39.581Z,8.67
2023-05-14T00:13:41.055Z,8.65
2023-05-14T00:14:42.489Z,8.65
2023-05-14T00:15:44.452Z,8.62
2023-05-14T00:16:45.793Z,8.65
2023-05-14T00:17:47.244Z,8.65
2023-05-14T00:18:51.849Z,8.61
2023-05-14T00:19:53.299Z,8.62
2023-05-14T00:20:54.938Z,8.61
2023-05-14T00:21:56.418Z,8.62
2023-05-14T00:22:57.826Z,8.62
2023-05-14T00:23:59.398Z,8.64
2023-05-14T00:25:00.870Z,8.64
2023-05-14T00:26:02.388Z,8.67
2023-05-14T00:27:04.085Z,8.69
2023-05-14T00:28:05.499Z,8.68
2023-05-14T00:29:07.089Z,8.70
2023-05-14T00:30:08.798Z,8.68
2023-05-14T00:31:10.209Z,8.70
2023-05-14T00:32:11.641Z,8.70
2023-05-14T00:33:13.132Z,8.72
2023-05-14T00:34:14.523Z,8.73
2023-05-14T00:35:16.184Z,8.75
2023-05-14T00:36:17.652Z,8.79
2023-05-14T00:37:19.062Z,8.82
2023-05-14T00:38:20.566Z,8.83
2023-05-14T00:39:21.946Z,8.82
2023-05-14T00:40:27.651Z,8.88
2023-05-14T00:41:29.050Z,8.87
2023-05-14T00:42:30.650Z,8.86
2023-05-14T00:43:33.200Z,8.90
2023-05-14T00:44:35.436Z,8.93
2023-05-14T00:45:37.016Z,8.94
2023-05-14T00:46:38.631Z,8.96
2023-05-14T00:47:40.617Z,8.99
2023-05-14T00:48:42.168Z,8.98
2023-05-14T00:49:43.880Z,8.98
2023-05-14T00:50:45.705Z,9.02
2023-05-14T00:51:47.251Z,9.01
2023-05-14T00:52:49.425Z,9.02
2023-05-14T00:53:51.007Z,9.06
2023-05-14T00:54:52.561Z,9.06
2023-05-14T00:55:54.191Z,9.06
2023-05-14T00:56:56.170Z,9.03
2023-05-14T00:57:58.023Z,9.01
2023-05-14T00:58:59.704Z,8.95
2023-05-14T01:00:01.222Z,8.95
2023-05-14T01:01:03.146Z,8.91
2023-05-14T01:02:04.696Z,8.90
2023-05-14T01:03:07.643Z,8.84
2023-05-14T01:04:11.633Z,8.82
2023-05-14T01:05:13.122Z,8.77
2023-05-14T01:06:40.812Z,8.74
2023-05-14T01:07:47.970Z,8.68
2023-05-14T01:09:20.188Z,8.65
2023-05-14T01:10:45.314Z,8.61
2023-05-14T01:12:00.897Z,8.56
2023-05-14T01:13:06.551Z,8.52
2023-05-14T01:14:34.147Z,8.49
2023-05-14T01:15:38.085Z,8.39
2023-05-14T01:16:40.501Z,8.41
2023-05-14T01:17:48.724Z,8.40
2023-05-14T01:18:52.565Z,8.33
2023-05-14T01:19:55.535Z,8.31
2023-05-14T01:20:57.007Z,8.27
2023-05-14T01:21:58.392Z,8.25
2023-05-14T01:22:59.782Z,8.21
2023-05-14T01:24:01.216Z,8.20
2023-05-14T01:25:02.776Z,8.19
2023-05-14T01:26:04.410Z,8.19
2023-05-14T01:27:34.812Z,8.16
2023-05-14T01:28:37.513Z,8.10
2023-05-14T01:29:43.325Z,8.08
2023-05-14T01:31:19.577Z,8.06
2023-05-14T01:32:24.492Z,8.04
2023-05-14T01:33:29.196Z,8.05
2023-05-14T01:34:31.292Z,8.03
2023-05-14T01:35:36.121Z,8.01
2023-05-14T01:36:38.938Z,8.00
2023-05-14T01:37:41.701Z,7.96
2023-05-14T01:38:45.701Z,7.93
2023-05-14T01:39:48.410Z,7.93
2023-05-14T01:40:50.810Z,7.88
2023-05-14T01:41:53.257Z,7.86
2023-05-14T01:42:55.304Z,7.87
2023-05-14T01:43:57.371Z,7.88
2023-05-14T01:44:59.502Z,7.88
2023-05-14T01:46:01.002Z,7.90
2023-05-14T01:47:02.562Z,7.83
2023-05-14T01:48:07.023Z,7.84
2023-05-14T01:49:08.488Z,7.89
2023-05-14T01:50:10.547Z,7.87
2023-05-14T01:51:14.524Z,7.89
2023-05-14T01:52:16.009Z,7.90
2023-05-14T01:53:17.467Z,7.89
2023-05-14T01:54:18.878Z,7.91
2023-05-14T01:55:24.461Z,7.94
2023-05-14T01:56:26.080Z,7.97
2023-05-14T01:57:27.516Z,8.01
2023-05-14T01:58:28.980Z,8.03
2023-05-14T01:59:30.487Z,8.05
2023-05-14T02:00:32.060Z,8.10
2023-05-14T02:01:33.913Z,8.13
2023-05-14T02:02:35.541Z,8.13
2023-05-14T02:03:37.116Z,8.14
2023-05-14T02:04:38.608Z,8.17
2023-05-14T02:05:40.069Z,8.19
2023-05-14T02:06:41.587Z,8.23
2023-05-14T02:07:42.987Z,8.24
2023-05-14T02:08:44.391Z,8.30
2023-05-14T02:09:45.877Z,8.30
2023-05-14T02:10:47.296Z,8.30
2023-05-14T02:11:48.678Z,8.33
2023-05-14T02:12:50.153Z,8.34
2023-05-14T02:13:51.660Z,8.37
2023-05-14T02:14:53.069Z,8.33
2023-05-14T02:15:54.556Z,8.39
2023-05-14T02:16:56.272Z,8.40
2023-05-14T02:17:57.739Z,8.43
2023-05-14T02:18:59.197Z,8.44
2023-05-14T02:20:00.723Z,8.41
2023-05-14T02:21:02.492Z,8.45
2023-05-14T02:22:03.977Z,8.44
2023-05-14T02:23:05.572Z,8.47
2023-05-14T02:24:07.113Z,8.49
2023-05-14T02:25:09.240Z,8.50
2023-05-14T02:26:11.133Z,8.50
2023-05-14T02:27:13.290Z,8.46
2023-05-14T02:28:14.696Z,8.44
2023-05-14T02:29:16.167Z,8.49
2023-05-14T02:30:17.745Z,8.51
2023-05-14T02:31:19.476Z,8.50
2023-05-14T02:32:21.080Z,8.49
2023-05-14T02:33:22.633Z,8.46
2023-05-14T02:34:24.931Z,8.47
2023-05-14T02:35:26.340Z,8.46
2023-05-14T02:36:27.816Z,8.46
2023-05-14T02:37:29.240Z,8.46
2023-05-14T02:38:30.612Z,8.46
2023-05-14T02:39:32.044Z,8.45
2023-05-14T02:40:33.425Z,8.42
2023-05-14T02:41:34.895Z,8.46
2023-05-14T02:42:36.333Z,8.43
2023-05-14T02:43:37.709Z,8.45
2023-05-14T02:44:39.166Z,8.47
2023-05-14T02:45:40.555Z,8.47
2023-05-14T02:46:42.791Z,8.52
2023-05-14T02:47:44.322Z,8.52
2023-05-14T02:48:45.916Z,8.56
2023-05-14T02:49:47.310Z,8.55
2023-05-14T02:50:51.042Z,8.58
2023-05-14T02:51:54.257Z,8.58
2023-05-14T02:52:55.686Z,8.62
2023-05-14T02:53:57.090Z,8.65
2023-05-14T02:54:58.482Z,8.66
2023-05-14T02:55:59.933Z,8.66
2023-05-14T02:57:01.437Z,8.67
2023-05-14T02:58:02.924Z,8.71
2023-05-14T02:59:04.408Z,8.72
2023-05-14T03:00:06.596Z,8.74
2023-05-14T03:01:08.774Z,8.74
2023-05-14T03:02:10.847Z,8.76
2023-05-14T03:03:12.959Z,8.79
2023-05-14T03:04:14.760Z,8.79
2023-05-14T03:05:16.173Z,8.81
2023-05-14T03:06:17.588Z,8.80
2023-05-14T03:07:18.995Z,8.84
2023-05-14T03:08:20.548Z,8.82
2023-05-14T03:09:21.976Z,8.85
2023-05-14T03:10:23.592Z,8.85
2023-05-14T03:11:25.429Z,8.89
2023-05-14T03:12:27.017Z,8.89
2023-05-14T03:13:28.501Z,8.98
2023-05-14T03:14:29.919Z,8.97
2023-05-14T03:15:31.348Z,8.97
2023-05-14T03:16:32.828Z,8.99
2023-05-14T03:17:34.484Z,9.00
2023-05-14T03:18:36.625Z,8.97
2023-05-14T03:19:38.154Z,9.00
2023-05-14T03:20:39.683Z,9.00
2023-05-14T03:21:41.172Z,8.99
2023-05-14T03:22:42.755Z,9.02
2023-05-14T03:23:44.301Z,9.05
2023-05-14T03:24:45.782Z,9.05
2023-05-14T03:25:47.184Z,9.06
2023-05-14T03:26:48.567Z,9.06
2023-05-14T03:27:49.977Z,9.10
2023-05-14T03:28:51.381Z,9.11
2023-05-14T03:29:52.795Z,9.13
2023-05-14T03:30:54.494Z,9.14
2023-05-14T03:31:56.089Z,9.15
2023-05-14T03:32:57.701Z,9.16
2023-05-14T03:33:59.221Z,9.17
2023-05-14T03:35:00.664Z,9.15
2023-05-14T03:36:02.093Z,9.21
2023-05-14T03:37:03.663Z,9.22
2023-05-14T03:38:05.188Z,9.22
2023-05-14T03:39:09.889Z,9.24
2023-05-14T03:40:11.662Z,9.27
2023-05-14T03:41:13.072Z,9.29
2023-05-14T03:42:14.482Z,9.28
2023-05-14T03:43:16.381Z,9.32
2023-05-14T03:44:17.871Z,9.36
2023-05-14T03:45:19.515Z,9.41
2023-05-14T03:46:20.988Z,9.46
2023-05-14T03:47:22.444Z,9.46
2023-05-14T03:48:23.934Z,9.47
2023-05-14T03:49:25.408Z,9.47
2023-05-14T03:50:26.867Z,9.45
2023-05-14T03:51:28.257Z,9.38
2023-05-14T03:52:29.687Z,9.38
2023-05-14T03:53:31.142Z,9.35
2023-05-14T03:54:32.593Z,9.29
2023-05-14T03:55:34.020Z,9.30
2023-05-14T03:56:35.619Z,9.28
2023-05-14T03:57:37.068Z,9.22
2023-05-14T03:58:38.548Z,9.20
2023-05-14T03:59:39.972Z,9.17
2023-05-14T04:00:42.634Z,9.13
2023-05-14T04:01:44.594Z,9.09
2023-05-14T04:02:46.037Z,9.08
2023-05-14T04:03:47.789Z,9.01
2023-05-14T04:04:49.353Z,8.98
2023-05-14T04:05:51.507Z,8.96
2023-05-14T04:06:52.978Z,8.90
2023-05-14T04:07:54.407Z,8.90
2023-05-14T04:08:55.835Z,8.87
2023-05-14T04:09:57.274Z,8.85
2023-05-14T04:10:58.683Z,8.77
2023-05-14T04:12:00.192Z,8.78
2023-05-14T04:13:01.634Z,8.77
2023-05-14T04:14:03.134Z,8.74
2023-05-14T04:15:05.422Z,8.72
2023-05-14T04:16:07.014Z,8.72
2023-05-14T04:17:08.436Z,8.67
2023-05-14T04:18:09.901Z,8.69
2023-05-14T04:19:11.584Z,8.68
2023-05-14T04:20:13.133Z,8.69
2023-05-14T04:21:14.824Z,8.68
2023-05-14T04:22:16.194Z,8.72
2023-05-14T04:23:17.598Z,8.72
2023-05-14T04:24:19.030Z,8.72
2023-05-14T04:25:20.722Z,8.74
2023-05-14T04:26:22.156Z,8.78
2023-05-14T04:27:23.611Z,8.77
2023-05-14T04:28:25.119Z,8.80
2023-05-14T04:29:27.698Z,8.83
2023-05-14T04:30:29.690Z,8.87
2023-05-14T04:31:31.595Z,8.90
2023-05-14T04:32:33.076Z,8.88
2023-05-14T04:33:34.517Z,8.95
2023-05-14T04:34:36.247Z,9.01
2023-05-14T04:35:37.768Z,9.11
2023-05-14T04:36:40.061Z,9.25
2023-05-14T04:37:41.593Z,9.36
2023-05-14T04:38:43.011Z,9.45
2023-05-14T04:39:44.565Z,9.50
2023-05-14T04:40:48.552Z,9.64
2023-05-14T04:41:49.950Z,9.68
2023-05-14T04:42:51.423Z,9.79
2023-05-14T04:43:56.391Z,9.98
2023-05-14T04:44:58.655Z,9.98
2023-05-14T04:46:00.620Z,10.06
2023-05-14T04:47:02.657Z,10.15
2023-05-14T04:48:04.704Z,10.28
2023-05-14T04:49:06.167Z,10.41
2023-05-14T04:50:09.711Z,10.67
2023-05-14T04:51:11.177Z,11.05
2023-05-14T04:52:12.697Z,11.28
2023-05-14T04:53:14.129Z,11.57
2023-05-14T04:54:15.559Z,11.81
2023-05-14T04:55:17.088Z,12.11
2023-05-14T04:56:18.503Z,12.34
2023-05-14T04:57:19.994Z,12.55
2023-05-14T04:58:23.166Z,12.76
2023-05-14T04:59:24.576Z,12.91
2023-05-14T05:00:26.334Z,12.88
2023-05-14T05:01:28.032Z,12.97
2023-05-14T05:02:29.464Z,13.02
2023-05-14T05:03:31.188Z,13.06
2023-05-14T05:04:32.602Z,12.99
2023-05-14T05:05:35.096Z,12.88
2023-05-14T05:06:36.550Z,12.75
2023-05-14T05:07:37.982Z,12.58
2023-05-14T05:08:39.792Z,12.59
2023-05-14T05:09:41.211Z,12.54
2023-05-14T05:10:42.651Z,12.36
2023-05-14T05:11:44.325Z,12.33
2023-05-14T05:12:45.818Z,12.14
2023-05-14T05:13:47.225Z,12.08
2023-05-14T05:14:48.634Z,12.08
2023-05-14T05:15:50.089Z,11.96
2023-05-14T05:16:51.512Z,11.83
2023-05-14T05:17:53.025Z,11.70
2023-05-14T05:18:54.573Z,11.47
2023-05-14T05:19:56.078Z,11.40
2023-05-14T05:20:57.747Z,11.36
2023-05-14T05:21:59.242Z,11.25
2023-05-14T05:23:00.769Z,11.21
2023-05-14T05:24:02.356Z,11.31
2023-05-14T05:25:06.314Z,11.34
2023-05-14T05:26:07.773Z,11.46
2023-05-14T05:27:09.165Z,11.50
2023-05-14T05:28:10.615Z,11.57
2023-05-14T05:29:12.019Z,11.63
2023-05-14T05:30:13.500Z,11.70
2023-05-14T05:31:15.464Z,11.76
2023-05-14T05:32:17.998Z,11.85
2023-05-14T05:33:19.761Z,11.96
2023-05-14T05:34:21.351Z,12.00
2023-05-14T05:35:22.981Z,12.07
2023-05-14T05:36:24.430Z,12.06
2023-05-14T05:37:25.871Z,12.08
2023-05-14T05:38:27.279Z,12.15
2023-05-14T05:39:34.553Z,12.14
2023-05-14T05:40:36.094Z,12.26
2023-05-14T05:41:37.492Z,12.28
2023-05-14T05:42:38.865Z,12.35
2023-05-14T05:43:40.333Z,12.41
2023-05-14T05:44:41.747Z,12.46
2023-05-14T05:45:45.997Z,12.46
2023-05-14T05:46:47.493Z,12.51
2023-05-14T05:47:48.964Z,12.53
2023-05-14T05:48:50.491Z,12.55
2023-05-14T05:49:51.867Z,12.61
2023-05-14T05:50:53.304Z,12.72
2023-05-14T05:51:54.832Z,12.72
2023-05-14T05:52:56.297Z,12.70
2023-05-14T05:53:57.704Z,12.71
2023-05-14T05:54:59.106Z,12.70
2023-05-14T05:56:00.528Z,12.80
2023-05-14T05:57:01.953Z,12.90
2023-05-14T05:58:03.350Z,12.98
2023-05-14T05:59:04.776Z,13.01
2023-05-14T06:00:13.128Z,13.04
2023-05-14T06:01:14.654Z,13.08
2023-05-14T06:02:16.097Z,12.98
2023-05-14T06:03:17.644Z,12.96
2023-05-14T06:04:19.083Z,13.13
2023-05-14T06:05:23.809Z,13.21
2023-05-14T06:06:25.388Z,13.30
2023-05-14T06:07:26.813Z,13.37
2023-05-14T06:08:28.227Z,13.41
2023-05-14T06:09:29.664Z,13.38
2023-05-14T06:10:31.220Z,13.47
2023-05-14T06:11:32.840Z,13.60
2023-05-14T06:12:34.299Z,13.63
2023-05-14T06:13:35.995Z,13.67
2023-05-14T06:14:37.393Z,13.64
2023-05-14T06:15:41.741Z,13.70
2023-05-14T06:16:43.167Z,13.71
2023-05-14T06:17:44.639Z,13.74
2023-05-14T06:18:46.475Z,13.69
2023-05-14T06:19:47.893Z,13.69
2023-05-14T06:20:49.309Z,13.70
2023-05-14T06:21:50.741Z,13.66
2023-05-14T06:22:52.220Z,13.65
2023-05-14T06:23:53.622Z,13.63
2023-05-14T06:24:55.304Z,13.65
2023-05-14T06:25:56.777Z,13.69
2023-05-14T06:26:58.191Z,13.70
2023-05-14T06:27:59.618Z,13.82
2023-05-14T06:29:01.020Z,13.95
2023-05-14T06:30:02.540Z,13.95
2023-05-14T06:31:04.052Z,14.04
2023-05-14T06:32:05.883Z,14.11
2023-05-14T06:33:07.310Z,14.20
2023-05-14T06:34:09.151Z,14.27
2023-05-14T06:35:10.730Z,14.31
2023-05-14T06:36:12.176Z,14.37
2023-05-14T06:37:13.610Z,14.28
2023-05-14T06:38:15.023Z,14.41
2023-05-14T06:39:16.419Z,14.35
2023-05-14T06:40:18.629Z,14.47
2023-05-14T06:41:20.020Z,14.51
2023-05-14T06:42:21.442Z,14.54
2023-05-14T06:43:22.914Z,14.48
2023-05-14T06:44:24.371Z,14.57
2023-05-14T06:45:25.786Z,14.68
2023-05-14T06:46:27.222Z,14.64
2023-05-14T06:47:28.698Z,14.71
2023-05-14T06:48:30.992Z,14.86
2023-05-14T06:49:32.412Z,14.86
2023-05-14T06:50:33.779Z,15.00
2023-05-14T06:51:35.217Z,14.97
2023-05-14T06:52:37.030Z,14.94
2023-05-14T06:53:39.092Z,15.07
2023-05-14T06:54:40.589Z,15.06
2023-05-14T06:55:42.005Z,15.01
2023-05-14T06:56:43.446Z,15.18
2023-05-14T06:57:45.051Z,15.25
2023-05-14T06:58:46.466Z,15.26
2023-05-14T06:59:47.865Z,15.31
2023-05-14T07:00:49.284Z,15.28
2023-05-14T07:01:50.826Z,15.37
2023-05-14T07:02:52.357Z,15.40
2023-05-14T07:03:53.915Z,15.50
2023-05-14T07:04:55.921Z,15.57
2023-05-14T07:05:57.364Z,15.68
2023-05-14T07:06:58.879Z,15.62
2023-05-14T07:08:00.336Z,15.56
2023-05-14T07:09:02.203Z,15.70
2023-05-14T07:10:03.816Z,15.72
2023-05-14T07:11:05.270Z,15.77
2023-05-14T07:12:07.406Z,15.79
2023-05-14T07:13:08.837Z,15.76
2023-05-14T07:14:10.562Z,15.75
2023-05-14T07:15:12.225Z,15.86
2023-05-14T07:16:13.688Z,15.88
2023-05-14T07:17:15.158Z,16.07
2023-05-14T07:18:16.817Z,16.25
2023-05-14T07:19:18.301Z,16.36
2023-05-14T07:20:24.075Z,16.37
2023-05-14T07:21:26.122Z,16.21
2023-05-14T07:22:27.537Z,16.47
2023-05-14T07:23:28.942Z,16.30
2023-05-14T07:24:30.428Z,16.61
2023-05-14T07:25:32.650Z,16.58
2023-05-14T07:26:34.148Z,16.65
2023-05-14T07:27:35.571Z,16.80
2023-05-14T07:28:36.984Z,16.77
2023-05-14T07:29:38.407Z,16.77
2023-05-14T07:30:39.948Z,16.88
2023-05-14T07:31:41.407Z,16.74
2023-05-14T07:32:42.927Z,16.95
2023-05-14T07:33:44.797Z,16.90
2023-05-14T07:34:46.324Z,16.94
2023-05-14T07:35:47.852Z,17.22
2023-05-14T07:36:49.285Z,17.24
2023-05-14T07:37:51.577Z,17.33
2023-05-14T07:38:53.012Z,17.27
2023-05-14T07:39:54.484Z,17.37
2023-05-14T07:40:56.085Z,17.35
2023-05-14T07:41:57.562Z,17.36
2023-05-14T07:42:58.999Z,17.43
2023-05-14T07:44:00.471Z,17.47
2023-05-14T07:45:01.969Z,17.08
2023-05-14T07:46:03.389Z,17.11
2023-05-14T07:47:05.095Z,17.04
2023-05-14T07:48:06.742Z,17.10
2023-05-14T07:49:08.364Z,17.21
2023-05-14T07:50:10.412Z,17.19
2023-05-14T07:51:11.872Z,17.37
2023-05-14T07:52:13.312Z,17.39
2023-05-14T07:53:14.828Z,17.55
2023-05-14T07:54:16.842Z,17.54
2023-05-14T07:55:18.351Z,17.63
2023-05-14T07:56:19.947Z,17.91
2023-05-14T07:57:22.069Z,17.78
2023-05-14T07:58:24.932Z,17.66
2023-05-14T07:59:26.357Z,17.74
2023-05-14T08:00:27.977Z,17.75
2023-05-14T08:01:29.456Z,17.81
2023-05-14T08:02:31.039Z,17.96
2023-05-14T08:03:33.780Z,17.84
2023-05-14T08:04:36.025Z,17.83
2023-05-14T08:05:37.566Z,18.04
2023-05-14T08:06:38.987Z,18.19
2023-05-14T08:07:41.296Z,18.45
2023-05-14T08:08:42.716Z,18.53
2023-05-14T08:09:44.285Z,18.61
2023-05-14T08:10:45.845Z,18.67
2023-05-14T08:11:47.346Z,18.80
2023-05-14T08:12:49.859Z,18.96
2023-05-14T08:13:51.292Z,18.86
2023-05-14T08:14:53.199Z,18.82
2023-05-14T08:15:55.478Z,18.80
2023-05-14T08:16:56.991Z,18.72
2023-05-14T08:18:03.259Z,18.80
2023-05-14T08:19:04.758Z,18.89
2023-05-14T08:20:07.391Z,18.66
2023-05-14T08:21:08.832Z,18.61
2023-05-14T08:22:10.283Z,18.57
2023-05-14T08:23:11.821Z,18.72
2023-05-14T08:24:13.303Z,18.63
2023-05-14T08:25:14.780Z,18.76
2023-05-14T08:26:16.231Z,18.69
2023-05-14T08:27:17.609Z,18.88
2023-05-14T08:28:19.052Z,18.84
2023-05-14T08:29:20.638Z,18.95
2023-05-14T08:30:22.951Z,19.08
2023-05-14T08:31:24.861Z,18.96
2023-05-14T08:32:26.430Z,18.90
2023-05-14T08:33:27.867Z,18.97
2023-05-14T08:34:29.794Z,18.90
2023-05-14T08:35:31.208Z,18.93
2023-05-14T08:36:32.868Z,18.94
2023-05-14T08:37:34.287Z,18.80
2023-05-14T08:38:35.702Z,18.87
2023-05-14T08:39:37.096Z,18.89
2023-05-14T08:40:38.557Z,18.90
2023-05-14T08:41:40.861Z,19.01
2023-05-14T08:42:44.952Z,19.08
2023-05-14T08:44:12.682Z,19.15
2023-05-14T08:45:20.909Z,19.07
2023-05-14T08:46:24.828Z,19.28
2023-05-14T08:47:26.582Z,19.32
2023-05-14T08:48:32.048Z,19.36
2023-05-14T08:49:46.264Z,19.51
2023-05-14T08:50:47.749Z,19.68
2023-05-14T08:51:49.707Z,19.71
2023-05-14T08:52:52.028Z,19.55
2023-05-14T08:53:53.473Z,19.63
2023-05-14T08:54:55.835Z,19.86
2023-05-14T08:55:58.079Z,20.07
2023-05-14T08:56:59.637Z,20.28
2023-05-14T08:58:01.440Z,20.40
2023-05-14T08:59:02.819Z,20.54
2023-05-14T09:00:08.537Z,20.73
2023-05-14T09:01:09.994Z,20.85
2023-05-14T09:02:14.969Z,20.82
2023-05-14T09:03:18.324Z,20.92
2023-05-14T09:04:22.218Z,20.91
2023-05-14T09:05:24.135Z,20.61
2023-05-14T09:06:26.018Z,20.54
2023-05-14T09:07:27.987Z,20.51
2023-05-14T09:08:29.656Z,20.44
2023-05-14T09:09:31.161Z,20.30
2023-05-14T09:10:32.662Z,19.99
2023-05-14T09:11:34.067Z,19.81
2023-05-14T09:12:35.598Z,19.62
2023-05-14T09:13:39.437Z,19.62
2023-05-14T09:14:41.252Z,19.44
2023-05-14T09:15:42.605Z,19.23
2023-05-14T09:16:49.565Z,19.23
2023-05-14T09:17:51.198Z,19.11
2023-05-14T09:18:52.941Z,19.14
2023-05-14T09:19:54.477Z,19.21
2023-05-14T09:20:56.044Z,19.24
2023-05-14T09:21:59.043Z,19.27
2023-05-14T09:23:01.646Z,19.27
2023-05-14T09:24:03.854Z,19.33
2023-05-14T09:25:08.012Z,19.33
2023-05-14T09:26:09.454Z,19.37
2023-05-14T09:27:20.309Z,19.34
2023-05-14T09:28:22.798Z,19.40
2023-05-14T09:29:26.083Z,19.53
2023-05-14T09:30:27.627Z,19.33
2023-05-14T09:31:33.583Z,19.28
2023-05-14T09:32:40.282Z,19.25
2023-05-14T09:33:41.889Z,19.24
2023-05-14T09:34:43.310Z,19.37
2023-05-14T09:35:44.820Z,19.40
2023-05-14T09:36:46.220Z,19.58
2023-05-14T09:37:50.401Z,19.62
2023-05-14T09:38:51.808Z,19.55
2023-05-14T09:39:53.237Z,19.60
2023-05-14T09:40:54.646Z,19.58
2023-05-14T09:41:56.668Z,19.51
2023-05-14T09:42:58.196Z,19.50
2023-05-14T09:44:02.684Z,19.70
2023-05-14T09:45:05.358Z,19.63
2023-05-14T09:46:06.847Z,19.66
2023-05-14T09:47:08.388Z,19.71
2023-05-14T09:48:10.438Z,19.73
2023-05-14T09:49:12.159Z,19.69
2023-05-14T09:50:13.693Z,19.80
2023-05-14T09:51:17.517Z,20.01
2023-05-14T09:52:19.803Z,20.13
2023-05-14T09:53:21.378Z,20.11
2023-05-14T09:54:23.648Z,20.32
2023-05-14T09:55:26.035Z,20.30
2023-05-14T09:56:27.504Z,20.27
2023-05-14T09:57:29.096Z,20.28
2023-05-14T09:58:30.590Z,20.20
2023-05-14T09:59:32.019Z,20.01
2023-05-14T10:00:34.508Z,20.01
2023-05-14T10:01:36.700Z,19.88
2023-05-14T10:02:41.139Z,19.98
2023-05-14T10:03:43.383Z,19.89
2023-05-14T10:04:45.437Z,20.01
2023-05-14T10:05:49.529Z,19.99
2023-05-14T10:06:53.163Z,19.98
2023-05-14T10:07:59.078Z,19.88
2023-05-14T10:09:03.911Z,19.72
2023-05-14T10:10:08.675Z,19.58
2023-05-14T10:11:20.744Z,19.41
2023-05-14T10:12:23.516Z,19.37
2023-05-14T10:13:36.688Z,19.46
2023-05-14T10:14:47.298Z,19.39
2023-05-14T10:16:00.161Z,19.30
2023-05-14T10:17:03.237Z,19.21
2023-05-14T10:18:11.213Z,19.14
2023-05-14T10:19:15.188Z,19.15
2023-05-14T10:20:17.640Z,19.13
2023-05-14T10:21:22.306Z,19.04
2023-05-14T10:22:26.954Z,19.04
2023-05-14T10:23:28.704Z,18.91
2023-05-14T10:24:31.177Z,18.86
2023-05-14T10:25:33.017Z,18.71
2023-05-14T10:26:38.967Z,18.58
2023-05-14T10:27:41.295Z,18.50
2023-05-14T10:28:43.829Z,18.49
2023-05-14T10:29:54.378Z,18.45
2023-05-14T10:30:56.045Z,18.35
2023-05-14T10:31:57.484Z,18.29
2023-05-14T10:33:09.982Z,18.23
2023-05-14T10:34:49.446Z,18.27
2023-05-14T10:36:05.261Z,18.23
2023-05-14T10:37:11.989Z,18.14
2023-05-14T10:38:15.213Z,18.09
2023-05-14T10:39:16.634Z,18.09
2023-05-14T10:40:19.139Z,18.18
2023-05-14T10:41:21.521Z,18.20
2023-05-14T10:42:43.680Z,18.10
2023-05-14T10:43:45.331Z,18.21
2023-05-14T10:44:59.618Z,18.30
2023-05-14T10:46:01.185Z,18.30
2023-05-14T10:47:03.308Z,18.25
2023-05-14T10:48:04.996Z,18.30
2023-05-14T10:49:06.671Z,18.41
2023-05-14T10:50:10.874Z,18.39
2023-05-14T10:51:12.785Z,18.40
2023-05-14T10:52:18.421Z,18.33
2023-05-14T10:53:21.089Z,18.30
2023-05-14T10:54:23.350Z,18.42
2023-05-14T10:55:25.493Z,18.49
2023-05-14T10:56:26.897Z,18.53
2023-05-14T10:57:30.812Z,18.47
2023-05-14T10:58:35.900Z,18.58
2023-05-14T10:59:37.357Z,18.67
2023-05-14T11:00:39.229Z,18.76
2023-05-14T11:01:41.076Z,18.83
2023-05-14T11:02:44.561Z,18.87
2023-05-14T11:03:47.122Z,18.79
2023-05-14T11:05:13.943Z,18.87
2023-05-14T11:06:16.171Z,18.77
2023-05-14T11:07:23.693Z,18.65
2023-05-14T11:08:29.372Z,18.66
2023-05-14T11:09:31.152Z,18.59
2023-05-14T11:10:32.733Z,18.53
2023-05-14T11:11:35.584Z,18.53
2023-05-14T11:12:42.413Z,18.44
2023-05-14T11:13:44.958Z,18.42
2023-05-14T11:14:47.176Z,18.39
2023-05-14T11:15:49.346Z,18.30
2023-05-14T11:16:50.980Z,18.22
2023-05-14T11:17:53.690Z,18.29
2023-05-14T11:19:03.507Z,18.32
2023-05-14T11:20:06.553Z,18.28
2023-05-14T11:21:08.037Z,18.17
2023-05-14T11:22:09.447Z,18.23
2023-05-14T11:23:10.975Z,18.26
2023-05-14T11:24:12.443Z,18.35
2023-05-14T11:25:15.146Z,18.43
2023-05-14T11:26:17.928Z,18.53
2023-05-14T11:27:22.389Z,18.52
2023-05-14T11:28:26.252Z,18.56
2023-05-14T11:29:27.740Z,18.73
2023-05-14T11:30:31.334Z,18.89
2023-05-14T11:31:32.963Z,18.93
2023-05-14T11:32:35.112Z,19.42
2023-05-14T11:33:36.630Z,19.86
2023-05-14T11:34:38.140Z,20.34
2023-05-14T11:35:39.648Z,20.86
2023-05-14T11:36:42.209Z,21.37
2023-05-14T11:37:49.345Z,21.17
2023-05-14T11:38:52.175Z,21.47
2023-05-14T11:39:55.024Z,21.25
2023-05-14T11:40:58.481Z,21.11
2023-05-14T11:42:02.690Z,20.91
2023-05-14T11:43:04.235Z,20.70
2023-05-14T11:44:07.288Z,20.60
2023-05-14T11:45:14.404Z,20.70
2023-05-14T11:46:18.061Z,20.65
2023-05-14T11:47:21.245Z,20.62
2023-05-14T11:48:23.993Z,20.44
2023-05-14T11:49:28.847Z,20.35
2023-05-14T11:50:30.300Z,20.42
2023-05-14T11:51:31.953Z,20.55
2023-05-14T11:52:41.563Z,20.60
2023-05-14T11:53:43.054Z,20.59
2023-05-14T11:54:45.254Z,20.38
2023-05-14T11:55:47.472Z,20.29
2023-05-14T11:56:51.834Z,20.14
2023-05-14T11:57:54.066Z,19.98
2023-05-14T11:58:58.180Z,19.84
2023-05-14T11:59:59.655Z,19.80
2023-05-14T12:01:01.125Z,19.77
2023-05-14T12:02:04.937Z,19.69
2023-05-14T12:03:06.647Z,19.60
2023-05-14T12:04:08.302Z,19.60
2023-05-14T12:05:13.376Z,19.51
2023-05-14T12:06:14.954Z,19.48
2023-05-14T12:07:16.546Z,19.48
2023-05-14T12:08:22.279Z,19.37
2023-05-14T12:09:23.692Z,19.41
2023-05-14T12:10:25.416Z,19.39
2023-05-14T12:11:31.987Z,19.34
2023-05-14T12:12:39.333Z,19.44
2023-05-14T12:13:40.769Z,19.51
2023-05-14T12:14:43.692Z,19.58
2023-05-14T12:15:47.040Z,19.61
2023-05-14T12:16:49.590Z,19.54
2023-05-14T12:17:53.823Z,19.53
2023-05-14T12:19:00.392Z,19.65
2023-05-14T12:20:01.854Z,19.77
2023-05-14T12:21:04.432Z,19.76
2023-05-14T12:22:05.937Z,19.62
2023-05-14T12:23:11.049Z,19.79
2023-05-14T12:24:14.181Z,20.05
2023-05-14T12:25:15.878Z,20.13
2023-05-14T12:26:17.347Z,20.39
2023-05-14T12:27:22.459Z,20.56
2023-05-14T12:28:23.913Z,20.56
2023-05-14T12:29:26.299Z,20.73
2023-05-14T12:30:27.802Z,20.86
2023-05-14T12:31:34.320Z,21.02
2023-05-14T12:32:36.144Z,20.99
2023-05-14T12:33:37.621Z,20.75
2023-05-14T12:34:39.126Z,20.95
2023-05-14T12:35:41.093Z,21.09
2023-05-14T12:36:43.199Z,21.33
2023-05-14T12:37:44.662Z,21.40
2023-05-14T12:38:46.132Z,21.36
2023-05-14T12:39:47.549Z,21.57
2023-05-14T12:40:49.019Z,21.33
2023-05-14T12:41:50.454Z,21.07
2023-05-14T12:42:51.858Z,21.32
2023-05-14T12:43:53.363Z,21.02
2023-05-14T12:44:54.811Z,21.19
2023-05-14T12:45:56.211Z,21.39
2023-05-14T12:46:57.836Z,21.48
2023-05-14T12:47:59.914Z,21.49
2023-05-14T12:49:01.457Z,21.37
2023-05-14T12:50:03.026Z,21.45
2023-05-14T12:51:04.615Z,21.62
2023-05-14T12:52:25.653Z,21.58
2023-05-14T12:53:28.404Z,21.36
2023-05-14T12:54:31.635Z,21.49
2023-05-14T12:55:34.244Z,21.11
2023-05-14T12:56:37.666Z,21.33
2023-05-14T12:57:39.703Z,21.08
2023-05-14T12:58:41.489Z,20.92
2023-05-14T12:59:43.325Z,20.83
2023-05-14T13:00:44.869Z,20.76
2023-05-14T13:01:46.323Z,20.75
2023-05-14T13:02:47.756Z,20.58
2023-05-14T13:03:49.474Z,20.60
2023-05-14T13:04:50.894Z,20.42
2023-05-14T13:05:53.645Z,20.14
2023-05-14T13:06:55.163Z,20.20
2023-05-14T13:07:59.540Z,19.97
2023-05-14T13:09:03.720Z,19.92
2023-05-14T13:10:05.839Z,19.88
2023-05-14T13:11:08.259Z,19.95
2023-05-14T13:12:09.769Z,19.85
2023-05-14T13:13:11.718Z,19.85
2023-05-14T13:14:13.166Z,19.86
2023-05-14T13:15:14.612Z,19.85
2023-05-14T13:16:16.883Z,19.84
2023-05-14T13:17:18.555Z,19.85
2023-05-14T13:18:20.025Z,19.88
2023-05-14T13:19:21.519Z,20.06
2023-05-14T13:20:23.588Z,20.22
2023-05-14T13:21:25.051Z,20.20
2023-05-14T13:22:26.475Z,20.42
2023-05-14T13:23:27.873Z,20.88
2023-05-14T13:24:29.381Z,21.58
2023-05-14T13:25:30.818Z,22.50
2023-05-14T13:26:32.253Z,22.60
2023-05-14T13:27:35.725Z,22.71
2023-05-14T13:28:37.127Z,22.28
2023-05-14T13:29:38.532Z,22.00
2023-05-14T13:30:40.014Z,21.72
2023-05-14T13:31:41.454Z,21.58
2023-05-14T13:32:42.894Z,21.35
2023-05-14T13:33:45.034Z,21.19
2023-05-14T13:34:46.459Z,20.97
2023-05-14T13:35:47.855Z,20.74